Time;durP1;ratioP1;P1;durP2;ratioP2;P2;SDS_P1;SDS_P2;PMS_P1;PMS_P2;Temp;Humidity;BMP_temperature;BMP_pressure;BME280_temperature;BME280_humidity;BME280_pressure;Samples;Min_cycle;Max_cycle;Signal;HPM_P1;HPM_P2
2023/07/18 00:00:32;;;;;;;3.05;1.65;;;22.50;99.90;;;;;;5013241;28;20021;-43
2023/07/18 00:02:58;;;;;;;3.35;1.80;;;22.50;99.90;;;;;;5013309;28;20026;-42
2023/07/18 00:05:24;;;;;;;3.13;1.70;;;22.50;99.90;;;;;;5013264;28;20028;-41
2023/07/18 00:07:49;;;;;;;3.40;1.70;;;22.50;99.90;;;;;;5013173;28;20036;-43
2023/07/18 00:10:19;;;;;;;3.00;1.60;;;22.50;99.90;;;;;;5012967;28;20030;-42
2023/07/18 00:12:45;;;;;;;1.77;1.38;;;22.50;99.90;;;;;;5013190;28;20025;-43
2023/07/18 00:15:11;;;;;;;1.95;1.27;;;22.50;99.90;;;;;;5013106;28;20500;-43
2023/07/18 00:17:37;;;;;;;2.90;1.50;;;22.50;99.90;;;;;;5011781;28;20124;-43
2023/07/18 00:20:08;;;;;;;2.20;1.45;;;22.50;99.90;;;;;;5012810;28;20133;-47
2023/07/18 00:22:34;;;;;;;2.50;1.48;;;22.50;99.90;;;;;;5013039;28;20108;-43
2023/07/18 00:24:59;;;;;;;2.42;1.50;;;22.50;99.90;;;;;;5013016;28;20426;-42
2023/07/18 00:27:25;;;;;;;3.05;1.50;;;22.50;99.90;;;;;;5012789;28;20072;-44
2023/07/18 00:29:51;;;;;;;4.03;1.52;;;22.50;99.90;;;;;;5012644;28;20076;-42
2023/07/18 00:32:16;;;;;;;3.75;1.40;;;22.40;99.90;;;;;;5012660;28;20485;-43
2023/07/18 00:34:44;;;;;;;3.15;1.52;;;22.50;99.90;;;;;;5012742;28;20429;-42
2023/07/18 00:37:10;;;;;;;3.45;1.50;;;22.40;99.90;;;;;;5012743;28;20022;-43
2023/07/18 00:39:35;;;;;;;4.00;1.58;;;22.50;99.90;;;;;;5012332;28;20481;-43
2023/07/18 00:42:01;;;;;;;5.40;1.70;;;22.40;99.90;;;;;;5012581;28;20088;-41
2023/07/18 00:44:27;;;;;;;1.67;1.20;;;22.50;99.90;;;;;;5012721;28;20026;-43
2023/07/18 00:46:53;;;;;;;3.83;1.50;;;22.50;99.90;;;;;;5012515;28;20529;-44
2023/07/18 00:49:19;;;;;;;4.18;1.20;;;22.40;99.90;;;;;;5012128;28;20033;-42
2023/07/18 00:51:46;;;;;;;3.65;1.48;;;22.50;99.90;;;;;;5012470;28;20025;-47
2023/07/18 00:54:12;;;;;;;7.43;1.63;;;22.40;99.90;;;;;;5012307;28;20476;-47
2023/07/18 00:56:38;;;;;;;2.38;1.42;;;22.40;99.90;;;;;;5012392;28;20050;-46
2023/07/18 00:59:06;;;;;;;4.65;1.55;;;22.40;99.90;;;;;;5012080;28;20042;-49
2023/07/18 01:01:32;;;;;;;2.95;1.30;;;22.40;99.90;;;;;;5012123;28;20037;-50
2023/07/18 01:03:58;;;;;;;2.55;1.40;;;22.40;99.90;;;;;;5012203;28;20076;-43
2023/07/18 01:06:24;;;;;;;3.95;1.50;;;22.40;99.90;;;;;;5012356;28;20030;-45
2023/07/18 01:08:51;;;;;;;1.80;1.20;;;22.40;99.90;;;;;;5011972;28;20030;-46
2023/07/18 01:11:18;;;;;;;2.50;1.40;;;22.40;99.90;;;;;;5012415;28;20358;-44
2023/07/18 01:13:43;;;;;;;3.17;1.60;;;22.40;99.90;;;;;;5012113;28;20022;-48
2023/07/18 01:16:09;;;;;;;4.55;1.40;;;22.40;99.90;;;;;;5011985;28;20076;-44
2023/07/18 01:18:34;;;;;;;3.33;1.75;;;22.40;99.90;;;;;;5011800;28;20388;-43
2023/07/18 01:21:02;;;;;;;1.75;1.17;;;22.40;99.90;;;;;;4994693;28;20025;-45
2023/07/18 01:23:28;;;;;;;3.70;1.25;;;22.40;99.90;;;;;;5011899;28;20026;-41
2023/07/18 01:25:54;;;;;;;2.95;1.50;;;22.40;99.90;;;;;;4994393;28;20096;-43
2023/07/18 01:28:20;;;;;;;2.13;1.40;;;22.40;99.90;;;;;;5011359;28;20030;-52
2023/07/18 01:30:46;;;;;;;3.40;1.42;;;22.30;99.90;;;;;;5011469;28;20034;-43
2023/07/18 01:33:12;;;;;;;2.03;1.25;;;22.30;99.90;;;;;;5011778;28;20033;-45
2023/07/18 01:35:38;;;;;;;4.03;1.48;;;22.30;99.90;;;;;;5011753;28;20030;-45
2023/07/18 01:38:03;;;;;;;2.08;1.20;;;22.30;99.90;;;;;;5011601;28;20109;-44
2023/07/18 01:40:29;;;;;;;2.47;1.60;;;22.40;99.90;;;;;;5011573;28;20083;-47
2023/07/18 01:42:57;;;;;;;2.72;1.30;;;22.30;99.90;;;;;;5012249;28;20021;-49
2023/07/18 01:45:24;;;;;;;1.92;1.20;;;22.40;99.90;;;;;;5011439;28;20508;-49
2023/07/18 01:47:51;;;;;;;2.03;1.10;;;22.30;99.90;;;;;;5011470;28;20401;-42
2023/07/18 01:50:17;;;;;;;1.95;1.10;;;22.30;99.90;;;;;;5011336;28;20018;-43
2023/07/18 01:52:44;;;;;;;4.28;1.50;;;22.30;99.90;;;;;;5011519;28;20037;-42
2023/07/18 01:55:09;;;;;;;2.30;1.35;;;22.30;99.90;;;;;;5011477;28;20168;-44
2023/07/18 01:57:38;;;;;;;4.53;1.30;;;22.30;99.90;;;;;;5011387;28;20517;-43
2023/07/18 02:00:11;;;;;;;2.45;1.10;;;22.30;99.90;;;;;;5011197;28;20036;-42
2023/07/18 02:02:40;;;;;;;2.38;1.40;;;22.30;99.90;;;;;;5011607;28;20026;-45
2023/07/18 02:05:07;;;;;;;4.25;1.30;;;22.30;99.90;;;;;;5011523;28;20056;-45
2023/07/18 02:07:34;;;;;;;3.28;1.20;;;22.30;99.90;;;;;;5011258;28;20509;-43
2023/07/18 02:10:01;;;;;;;2.42;1.30;;;22.30;99.90;;;;;;5011171;28;20034;-42
2023/07/18 02:12:27;;;;;;;4.32;1.25;;;22.30;99.90;;;;;;5011305;28;20496;-41
2023/07/18 02:14:53;;;;;;;5.03;1.30;;;22.30;99.90;;;;;;5011374;28;20025;-40
2023/07/18 02:17:19;;;;;;;2.88;1.42;;;22.30;99.90;;;;;;5011107;28;20026;-46
2023/07/18 02:19:45;;;;;;;5.30;1.33;;;22.30;99.90;;;;;;5011059;28;20040;-42
2023/07/18 02:22:10;;;;;;;3.97;1.38;;;22.30;99.90;;;;;;5011241;28;20022;-43
2023/07/18 02:24:37;;;;;;;2.78;1.25;;;22.30;99.90;;;;;;5011255;28;20076;-44
2023/07/18 02:27:04;;;;;;;2.70;1.20;;;22.30;99.90;;;;;;5011198;28;20489;-42
2023/07/18 02:29:30;;;;;;;5.05;1.55;;;22.30;99.90;;;;;;5010899;28;20026;-43
2023/07/18 02:31:56;;;;;;;5.13;1.17;;;22.30;99.90;;;;;;5011261;28;20026;-43
2023/07/18 02:34:22;;;;;;;2.60;1.10;;;22.30;99.90;;;;;;5011239;28;20080;-43
2023/07/18 02:36:48;;;;;;;2.17;1.20;;;22.30;99.90;;;;;;5011138;28;20014;-43
2023/07/18 02:39:15;;;;;;;2.53;1.17;;;22.30;99.90;;;;;;5010839;28;20485;-45
2023/07/18 02:41:41;;;;;;;3.70;1.45;;;22.30;99.90;;;;;;5013915;28;20029;-42
2023/07/18 02:44:06;;;;;;;2.50;1.00;;;22.30;99.90;;;;;;5014818;28;20026;-45
2023/07/18 02:46:32;;;;;;;3.78;1.30;;;22.30;99.90;;;;;;5014864;28;20425;-43
2023/07/18 02:48:58;;;;;;;2.50;1.30;;;22.30;99.90;;;;;;5014504;28;20026;-42
2023/07/18 02:51:23;;;;;;;1.73;1.20;;;22.20;99.90;;;;;;4997130;28;20022;-42
2023/07/18 02:53:50;;;;;;;2.17;1.15;;;22.30;99.90;;;;;;5014647;28;20026;-43
2023/07/18 02:56:16;;;;;;;2.80;1.30;;;22.20;99.90;;;;;;5014591;28;20509;-44
2023/07/18 02:58:42;;;;;;;3.28;1.40;;;22.30;99.90;;;;;;5014635;28;20029;-44
2023/07/18 03:01:08;;;;;;;2.75;1.10;;;22.20;99.90;;;;;;5014702;28;20530;-43
2023/07/18 03:03:38;;;;;;;2.35;1.20;;;22.20;99.90;;;;;;5014483;28;20034;-46
2023/07/18 03:06:04;;;;;;;2.05;1.30;;;22.20;99.90;;;;;;5014493;28;20025;-41
2023/07/18 03:08:32;;;;;;;2.88;1.50;;;22.20;99.90;;;;;;5014216;28;20041;-44
2023/07/18 03:11:00;;;;;;;2.80;1.40;;;22.20;99.90;;;;;;5014221;28;20393;-47
2023/07/18 03:13:26;;;;;;;2.90;1.38;;;22.20;99.90;;;;;;5014315;28;20559;-42
2023/07/18 03:15:52;;;;;;;4.03;1.80;;;22.20;99.90;;;;;;5014295;28;20054;-46
2023/07/18 03:18:17;;;;;;;3.40;1.42;;;22.20;99.90;;;;;;5014015;28;20401;-46
2023/07/18 03:20:43;;;;;;;4.32;1.60;;;22.20;99.90;;;;;;5013849;28;20036;-43
2023/07/18 03:23:09;;;;;;;1.95;1.25;;;22.20;99.90;;;;;;5014014;28;20038;-43
2023/07/18 03:25:35;;;;;;;6.97;1.50;;;22.20;99.90;;;;;;5014124;28;20026;-43
2023/07/18 03:28:00;;;;;;;2.58;1.20;;;22.20;99.90;;;;;;5013930;28;20030;-43
2023/07/18 03:30:26;;;;;;;3.50;1.23;;;22.20;99.90;;;;;;5013719;28;20041;-45
2023/07/18 03:32:52;;;;;;;2.83;1.27;;;22.20;99.90;;;;;;5013933;28;20049;-45
2023/07/18 03:35:18;;;;;;;3.60;1.30;;;22.20;99.90;;;;;;5013902;28;20026;-44
2023/07/18 03:37:44;;;;;;;2.50;1.15;;;22.10;99.90;;;;;;5013732;28;20490;-46
2023/07/18 03:40:10;;;;;;;2.10;1.33;;;22.10;99.90;;;;;;5013631;28;20056;-46
2023/07/18 03:42:36;;;;;;;1.88;1.30;;;22.10;99.90;;;;;;5013813;28;20103;-45
2023/07/18 03:45:03;;;;;;;3.17;1.48;;;22.10;99.90;;;;;;5013754;28;20512;-44
2023/07/18 03:47:28;;;;;;;3.05;1.35;;;22.10;99.90;;;;;;5013807;28;20057;-44
2023/07/18 03:49:54;;;;;;;1.83;1.27;;;22.10;99.90;;;;;;5013473;28;20477;-44
2023/07/18 03:52:20;;;;;;;3.30;1.52;;;22.10;99.90;;;;;;5013417;28;20152;-41
2023/07/18 03:54:45;;;;;;;2.75;1.30;;;22.10;99.90;;;;;;5013616;28;20670;-43
2023/07/18 03:57:12;;;;;;;3.92;1.38;;;22.10;99.90;;;;;;5013532;28;20040;-43
2023/07/18 03:59:38;;;;;;;3.03;1.45;;;22.10;99.90;;;;;;5013267;28;20026;-45
2023/07/18 04:02:04;;;;;;;3.00;1.30;;;22.10;99.90;;;;;;5013496;28;20038;-42
2023/07/18 04:04:31;;;;;;;2.15;1.27;;;22.10;99.90;;;;;;5013329;28;20485;-41
2023/07/18 04:06:56;;;;;;;2.63;1.30;;;22.10;99.90;;;;;;5013258;28;20450;-44
2023/07/18 04:09:22;;;;;;;3.42;1.25;;;22.10;99.90;;;;;;5012905;28;20030;-45
2023/07/18 04:11:47;;;;;;;2.45;1.50;;;22.10;99.90;;;;;;5013229;28;20100;-45
2023/07/18 04:14:13;;;;;;;2.55;1.20;;;22.10;99.90;;;;;;5013141;28;20021;-42
2023/07/18 04:16:39;;;;;;;2.95;1.35;;;22.10;99.90;;;;;;5013211;28;20045;-43
2023/07/18 04:19:05;;;;;;;5.00;1.48;;;22.10;99.90;;;;;;5012689;28;20405;-47
2023/07/18 04:21:31;;;;;;;1.42;1.08;;;22.00;99.90;;;;;;5012936;28;20096;-42
2023/07/18 04:23:56;;;;;;;2.90;1.20;;;22.10;99.90;;;;;;5013012;28;20049;-41
2023/07/18 04:26:22;;;;;;;3.60;1.38;;;22.10;99.90;;;;;;5013200;28;20060;-43
2023/07/18 04:28:48;;;;;;;3.20;1.30;;;22.10;99.90;;;;;;5012652;28;20025;-44
2023/07/18 04:31:14;;;;;;;1.95;1.27;;;22.00;99.90;;;;;;5012788;28;20053;-47
2023/07/18 04:33:40;;;;;;;2.35;1.30;;;22.00;99.90;;;;;;5013123;28;20374;-43
2023/07/18 04:36:07;;;;;;;2.50;1.10;;;22.00;99.90;;;;;;5013101;28;20026;-43
2023/07/18 04:38:33;;;;;;;3.63;1.40;;;22.10;99.90;;;;;;5012892;28;20030;-47
2023/07/18 04:40:59;;;;;;;3.08;1.50;;;22.10;99.90;;;;;;5012555;28;20034;-45
2023/07/18 04:43:25;;;;;;;3.58;1.58;;;22.00;99.90;;;;;;4994944;28;20034;-40
2023/07/18 04:45:51;;;;;;;3.05;1.30;;;22.10;99.90;;;;;;5012543;28;20026;-45
2023/07/18 04:48:18;;;;;;;2.28;1.17;;;22.00;99.90;;;;;;5012363;28;20097;-47
2023/07/18 04:50:50;;;;;;;3.30;1.23;;;22.10;99.90;;;;;;5012215;28;20034;-45
2023/07/18 04:53:16;;;;;;;2.50;1.50;;;22.00;99.90;;;;;;5012536;28;20021;-44
2023/07/18 04:55:41;;;;;;;2.47;1.30;;;22.00;99.90;;;;;;5012472;28;20393;-46
2023/07/18 04:58:08;;;;;;;2.72;1.33;;;22.00;99.90;;;;;;5012299;28;20033;-42
2023/07/18 05:00:35;;;;;;;2.70;1.23;;;22.00;99.90;;;;;;5012384;28;20033;-43
2023/07/18 05:03:00;;;;;;;2.45;1.27;;;22.00;99.90;;;;;;5011736;28;20026;-42
2023/07/18 05:05:27;;;;;;;2.78;1.10;;;22.00;99.90;;;;;;5012280;28;20489;-48
2023/07/18 05:07:58;;;;;;;5.63;1.50;;;22.00;99.90;;;;;;5010804;28;20080;-46
2023/07/18 05:10:26;;;;;;;3.20;1.52;;;22.00;99.90;;;;;;5012101;28;20096;-43
2023/07/18 05:12:53;;;;;;;2.50;1.17;;;22.00;99.90;;;;;;5012173;28;20386;-44
2023/07/18 05:15:19;;;;;;;2.67;1.35;;;22.00;99.90;;;;;;5012105;28;20026;-47
2023/07/18 05:17:45;;;;;;;3.50;1.30;;;22.00;99.90;;;;;;5011699;28;20060;-45
2023/07/18 05:20:12;;;;;;;2.53;1.30;;;22.00;99.90;;;;;;5011880;28;20034;-45
2023/07/18 05:22:42;;;;;;;4.70;1.20;;;22.00;99.90;;;;;;5011975;28;20042;-42
2023/07/18 05:25:09;;;;;;;2.08;1.30;;;22.00;99.90;;;;;;5011890;28;20038;-45
2023/07/18 05:27:34;;;;;;;3.83;1.40;;;22.00;99.90;;;;;;5011747;28;20465;-41
2023/07/18 05:30:00;;;;;;;3.78;1.20;;;22.00;99.90;;;;;;5011678;28;20044;-44
2023/07/18 05:32:26;;;;;;;2.78;1.23;;;22.00;99.90;;;;;;5010691;28;20117;-44
2023/07/18 05:34:52;;;;;;;4.63;1.35;;;22.00;99.90;;;;;;5011722;28;20029;-42
2023/07/18 05:37:18;;;;;;;2.97;1.30;;;22.00;99.90;;;;;;5011767;28;20021;-44
2023/07/18 05:39:44;;;;;;;2.85;1.60;;;22.00;99.90;;;;;;5011566;28;20027;-41
2023/07/18 05:42:10;;;;;;;1.98;1.20;;;22.00;99.90;;;;;;5011697;28;20056;-41
2023/07/18 05:44:35;;;;;;;2.47;1.40;;;22.00;99.90;;;;;;5011820;28;20072;-43
2023/07/18 05:47:01;;;;;;;3.40;1.45;;;22.00;99.90;;;;;;5011650;28;20126;-44
2023/07/18 05:49:27;;;;;;;2.38;1.17;;;22.00;99.90;;;;;;5011252;28;20046;-43
2023/07/18 05:51:53;;;;;;;2.50;1.00;;;22.00;99.90;;;;;;5011568;28;20033;-42
2023/07/18 05:54:18;;;;;;;2.60;1.38;;;22.00;99.90;;;;;;5011547;28;20374;-42
2023/07/18 05:56:44;;;;;;;2.35;1.40;;;22.00;99.90;;;;;;4993962;28;20022;-42
2023/07/18 05:59:10;;;;;;;1.98;1.17;;;22.00;99.90;;;;;;5011232;28;20044;-43
2023/07/18 06:01:35;;;;;;;2.75;1.20;;;22.00;99.90;;;;;;5011342;28;20038;-42
2023/07/18 06:04:01;;;;;;;2.10;1.15;;;22.00;99.90;;;;;;5011637;28;20030;-47
2023/07/18 06:06:27;;;;;;;3.15;1.10;;;22.00;99.90;;;;;;5011471;28;20065;-42
2023/07/18 06:08:52;;;;;;;4.72;1.23;;;22.00;99.90;;;;;;5011155;28;20034;-41
2023/07/18 06:11:21;;;;;;;2.03;1.30;;;22.00;99.90;;;;;;5011263;28;20389;-43
2023/07/18 06:13:51;;;;;;;3.65;1.33;;;22.00;99.90;;;;;;5011228;28;20024;-41
2023/07/18 06:16:17;;;;;;;1.90;1.30;;;22.00;99.90;;;;;;5014020;28;20026;-43
2023/07/18 06:18:42;;;;;;;2.08;1.17;;;22.00;99.90;;;;;;5015152;28;20409;-43
2023/07/18 06:21:08;;;;;;;2.47;1.23;;;22.00;99.90;;;;;;5015298;28;20038;-43
2023/07/18 06:23:34;;;;;;;3.20;1.45;;;22.00;99.90;;;;;;5015281;28;20056;-42
2023/07/18 06:25:59;;;;;;;2.08;1.10;;;22.00;99.90;;;;;;5015238;28;20133;-42
2023/07/18 06:28:25;;;;;;;2.45;1.30;;;22.00;99.90;;;;;;5014988;28;20077;-43
2023/07/18 06:30:55;;;;;;;2.78;1.20;;;22.00;99.90;;;;;;5014823;28;20052;-45
2023/07/18 06:33:21;;;;;;;1.85;1.10;;;22.10;99.90;;;;;;5015089;28;20032;-44
2023/07/18 06:35:55;;;;;;;5.05;1.58;;;22.00;99.90;;;;;;5015069;28;20029;-44
2023/07/18 06:38:20;;;;;;;4.93;0.88;;;22.10;99.90;;;;;;5014953;28;20026;-47
2023/07/18 06:40:47;;;;;;;2.67;1.20;;;22.10;99.90;;;;;;5014786;28;20026;-43
2023/07/18 06:43:13;;;;;;;2.15;1.10;;;22.00;99.90;;;;;;5014765;28;20386;-43
2023/07/18 06:45:39;;;;;;;6.60;1.40;;;22.10;99.90;;;;;;4997222;28;20029;-43
2023/07/18 06:48:05;;;;;;;4.65;1.45;;;22.10;99.90;;;;;;5014730;28;20105;-43
2023/07/18 06:50:30;;;;;;;2.40;1.20;;;22.10;99.90;;;;;;5014608;28;20449;-41
2023/07/18 06:52:56;;;;;;;1.85;1.10;;;22.10;99.90;;;;;;5014688;28;20072;-43
2023/07/18 06:55:22;;;;;;;3.50;1.10;;;22.10;99.90;;;;;;5014742;28;20045;-43
2023/07/18 06:57:48;;;;;;;2.85;1.25;;;22.00;99.90;;;;;;5014478;28;20026;-41
2023/07/18 07:00:15;;;;;;;1.63;1.05;;;22.10;99.90;;;;;;5014370;28;20477;-42
2023/07/18 07:02:40;;;;;;;1.90;1.20;;;22.10;99.90;;;;;;5014841;28;20497;-44
2023/07/18 07:05:07;;;;;;;4.13;1.27;;;22.10;99.90;;;;;;5014559;28;20367;-43
2023/07/18 07:07:32;;;;;;;3.08;1.20;;;22.10;99.90;;;;;;5014339;28;20500;-41
2023/07/18 07:09:58;;;;;;;2.03;0.90;;;22.10;99.90;;;;;;5014263;28;20033;-42
2023/07/18 07:12:23;;;;;;;4.13;1.10;;;22.10;99.90;;;;;;5014372;28;20218;-43
2023/07/18 07:14:49;;;;;;;2.92;1.20;;;22.10;99.90;;;;;;4996679;28;20038;-42
2023/07/18 07:17:15;;;;;;;4.65;1.00;;;22.10;99.90;;;;;;5014232;28;20022;-42
2023/07/18 07:19:40;;;;;;;2.25;1.10;;;22.10;99.90;;;;;;5014623;28;20032;-43
2023/07/18 07:22:06;;;;;;;1.63;1.00;;;22.10;99.90;;;;;;5014249;28;20034;-43
2023/07/18 07:24:31;;;;;;;2.13;1.08;;;22.10;99.90;;;;;;5014309;28;20121;-45
2023/07/18 07:26:57;;;;;;;8.70;1.77;;;22.10;99.90;;;;;;5013574;28;20032;-43
2023/07/18 07:29:25;;;;;;;9.10;1.65;;;22.00;97.40;;;;;;5013712;28;20026;-43
2023/07/18 07:31:51;;;;;;;12.30;1.88;;;21.90;98.30;;;;;;5014117;28;20030;-46
2023/07/18 07:34:16;;;;;;;7.68;1.85;;;21.90;98.50;;;;;;5014064;28;20022;-43
2023/07/18 07:36:42;;;;;;;3.58;1.30;;;22.00;99.00;;;;;;5014032;28;20044;-43
2023/07/18 07:39:08;;;;;;;5.63;1.33;;;21.90;99.30;;;;;;5013614;28;20034;-44
2023/07/18 07:41:34;;;;;;;6.80;1.83;;;22.00;99.60;;;;;;5013737;28;20061;-45
2023/07/18 07:44:00;;;;;;;4.78;1.42;;;22.00;99.80;;;;;;5013700;28;20051;-43
2023/07/18 07:46:26;;;;;;;4.63;1.33;;;22.00;99.90;;;;;;5013777;28;20038;-44
2023/07/18 07:48:52;;;;;;;6.72;1.42;;;22.00;99.90;;;;;;5013459;28;20026;-44
2023/07/18 07:51:17;;;;;;;5.28;1.40;;;22.10;99.90;;;;;;5013643;28;20041;-44
2023/07/18 07:53:43;;;;;;;5.95;1.60;;;22.10;99.90;;;;;;5013598;28;20026;-42
2023/07/18 08:02:53;;;;;;;5.50;1.48;;;22.10;99.90;;;;;;5013672;28;20117;-44
2023/07/18 08:05:19;;;;;;;5.35;1.42;;;22.10;99.90;;;;;;5013359;28;20494;-45
2023/07/18 08:07:44;;;;;;;2.95;1.38;;;22.10;99.90;;;;;;5013212;28;20025;-43
2023/07/18 08:10:10;;;;;;;2.33;1.25;;;22.10;99.90;;;;;;5013146;28;20321;-42
2023/07/18 08:12:35;;;;;;;5.82;1.45;;;22.10;99.90;;;;;;5013180;28;20065;-43
2023/07/18 08:15:01;;;;;;;4.57;1.25;;;22.10;99.90;;;;;;5013141;28;20018;-44
2023/07/18 08:17:27;;;;;;;6.43;1.25;;;22.10;99.90;;;;;;5012907;28;20045;-44
2023/07/18 08:19:52;;;;;;;2.97;1.25;;;22.10;99.10;;;;;;5012873;28;20026;-43
2023/07/18 08:22:18;;;;;;;5.95;1.55;;;22.10;99.40;;;;;;5013069;28;20026;-42
2023/07/18 08:24:43;;;;;;;5.57;1.48;;;22.10;99.40;;;;;;4995481;28;20080;-43
2023/07/18 08:27:09;;;;;;;4.75;1.30;;;22.10;99.40;;;;;;5012952;28;20041;-43
2023/07/18 08:29:35;;;;;;;3.97;1.65;;;22.10;99.50;;;;;;5012546;28;20123;-42
2023/07/18 08:32:01;;;;;;;5.78;1.27;;;22.10;99.70;;;;;;5012892;28;20429;-45
2023/07/18 08:34:27;;;;;;;2.75;1.35;;;22.10;99.70;;;;;;5012815;28;20056;-46
2023/07/18 08:36:53;;;;;;;2.15;1.20;;;22.10;99.80;;;;;;5012805;28;20055;-41
2023/07/18 08:39:18;;;;;;;4.22;1.30;;;22.10;99.90;;;;;;5011623;28;20022;-43
2023/07/18 08:41:46;;;;;;;5.55;1.55;;;22.10;99.90;;;;;;5012649;28;20022;-43
2023/07/18 08:44:16;;;;;;;3.75;1.50;;;22.20;99.90;;;;;;5012756;28;20717;-42
2023/07/18 08:46:45;;;;;;;2.58;1.08;;;22.10;99.90;;;;;;5012758;28;20033;-46
2023/07/18 08:49:14;;;;;;;4.20;1.42;;;22.20;99.90;;;;;;5012445;28;20064;-45
2023/07/18 08:51:41;;;;;;;3.88;1.30;;;22.10;99.90;;;;;;5012596;28;20041;-45
2023/07/18 08:54:06;;;;;;;3.20;1.30;;;22.20;99.90;;;;;;5012503;28;20030;-43
2023/07/18 08:56:32;;;;;;;4.68;1.20;;;22.20;99.90;;;;;;5012326;28;20030;-45
2023/07/18 08:59:00;;;;;;;5.05;1.15;;;22.20;99.90;;;;;;5012207;28;20030;-43
2023/07/18 09:01:25;;;;;;;5.60;1.20;;;22.20;99.90;;;;;;5012375;28;20531;-45
2023/07/18 09:03:51;;;;;;;1.90;1.00;;;22.20;99.90;;;;;;5012280;28;20030;-46
2023/07/18 09:06:20;;;;;;;3.33;1.30;;;22.20;99.90;;;;;;5012291;28;20030;-44
2023/07/18 09:08:47;;;;;;;2.42;1.30;;;22.20;99.90;;;;;;5012029;28;20265;-41
2023/07/18 09:11:14;;;;;;;2.67;1.30;;;22.20;99.90;;;;;;5012024;28;20030;-43
2023/07/18 09:13:41;;;;;;;2.78;1.30;;;22.20;99.90;;;;;;4994570;28;20034;-45
2023/07/18 09:16:18;;;;;;;2.05;1.15;;;22.20;99.90;;;;;;5012107;28;20026;-43
2023/07/18 09:18:54;;;;;;;3.20;1.23;;;22.20;99.90;;;;;;5011788;28;20038;-45
2023/07/18 09:21:21;;;;;;;1.85;1.02;;;22.20;99.90;;;;;;5011960;28;20060;-43
2023/07/18 09:23:47;;;;;;;2.75;1.30;;;22.20;99.90;;;;;;5012553;28;20033;-43
2023/07/18 09:26:16;;;;;;;3.08;0.95;;;22.30;99.90;;;;;;5012103;28;20391;-45
2023/07/18 09:28:41;;;;;;;2.75;1.30;;;22.30;99.90;;;;;;5011664;28;20025;-43
2023/07/18 09:31:25;;;;;;;2.72;1.08;;;22.20;99.90;;;;;;5011689;28;20473;-43
2023/07/18 09:33:54;;;;;;;2.97;1.30;;;22.30;99.90;;;;;;5012245;28;20112;-45
2023/07/18 09:36:22;;;;;;;1.67;0.80;;;22.30;99.90;;;;;;5011809;28;20048;-46
2023/07/18 09:38:49;;;;;;;3.03;1.30;;;22.30;99.90;;;;;;5011521;28;20397;-45
2023/07/18 09:41:22;;;;;;;2.47;1.30;;;22.30;99.90;;;;;;5011573;28;20491;-45
2023/07/18 09:43:48;;;;;;;1.65;1.10;;;22.30;99.90;;;;;;5011636;28;20481;-44
2023/07/18 09:46:15;;;;;;;2.40;1.13;;;22.30;99.90;;;;;;5011686;28;20029;-47
2023/07/18 09:48:43;;;;;;;2.67;1.10;;;22.30;99.90;;;;;;5011289;28;20079;-48
2023/07/18 09:51:12;;;;;;;1.23;0.90;;;22.30;99.90;;;;;;5011369;28;20393;-42
2023/07/18 09:53:41;;;;;;;3.10;1.08;;;22.30;99.90;;;;;;5011542;28;20031;-43
2023/07/18 09:56:08;;;;;;;2.55;0.98;;;22.30;99.90;;;;;;5011487;28;20025;-45
2023/07/18 09:58:38;;;;;;;4.10;1.35;;;22.30;99.90;;;;;;5011651;28;20030;-42
2023/07/18 10:01:07;;;;;;;4.00;1.10;;;22.30;99.90;;;;;;5011402;28;20021;-48
2023/07/18 10:03:33;;;;;;;1.77;1.15;;;22.30;99.90;;;;;;5011529;28;20083;-41
2023/07/18 10:05:58;;;;;;;2.08;1.10;;;22.30;99.90;;;;;;5011419;28;20108;-45
2023/07/18 10:08:24;;;;;;;2.03;1.20;;;22.30;99.90;;;;;;4993592;28;20022;-42
2023/07/18 10:11:08;;;;;;;1.65;1.10;;;22.30;99.90;;;;;;5011233;28;20024;-43
2023/07/18 10:14:05;;;;;;;2.00;1.17;;;22.30;99.90;;;;;;5011347;28;20088;-43
2023/07/18 10:16:34;;;;;;;1.77;1.10;;;22.30;99.90;;;;;;5011298;28;20105;-43
2023/07/18 10:19:19;;;;;;;2.10;1.05;;;22.30;99.90;;;;;;5010883;28;20531;-42
2023/07/18 10:21:46;;;;;;;2.58;1.10;;;22.30;99.90;;;;;;5011345;28;20481;-44
2023/07/18 10:24:21;;;;;;;1.90;1.33;;;22.30;99.90;;;;;;5011224;28;20116;-43
2023/07/18 10:26:58;;;;;;;3.17;1.23;;;22.30;99.90;;;;;;5011229;28;20034;-43
2023/07/18 10:29:28;;;;;;;2.58;1.38;;;22.30;99.90;;;;;;5010946;28;20018;-43
2023/07/18 10:31:54;;;;;;;3.03;1.33;;;22.30;99.90;;;;;;5011192;28;20022;-44
2023/07/18 10:34:19;;;;;;;2.40;1.33;;;22.30;99.90;;;;;;5011135;28;20393;-43
2023/07/18 10:36:59;;;;;;;2.83;1.33;;;22.30;99.90;;;;;;5011211;28;20389;-44
2023/07/18 10:39:54;;;;;;;2.10;1.30;;;22.30;99.90;;;;;;5011063;28;20025;-42
2023/07/18 10:42:26;;;;;;;2.40;1.35;;;22.30;99.90;;;;;;5002423;28;20045;-44
2023/07/18 10:45:14;;;;;;;3.90;1.35;;;22.30;99.90;;;;;;5010984;28;20096;-41
2023/07/18 10:47:39;;;;;;;2.70;1.15;;;22.30;99.90;;;;;;5010997;28;20080;-42
2023/07/18 10:50:07;;;;;;;1.73;1.00;;;22.30;99.90;;;;;;5010876;28;20030;-42
2023/07/18 10:52:34;;;;;;;1.92;1.27;;;22.30;99.90;;;;;;5011023;28;20022;-43
2023/07/18 10:55:01;;;;;;;1.80;1.15;;;22.30;99.90;;;;;;5010984;28;20089;-43
2023/07/18 10:57:32;;;;;;;2.10;1.20;;;22.30;99.90;;;;;;5010765;28;20034;-43
2023/07/18 10:59:59;;;;;;;2.97;1.40;;;22.30;99.90;;;;;;5010958;28;20026;-43
2023/07/18 11:02:27;;;;;;;1.95;1.08;;;22.30;99.90;;;;;;5013489;28;20022;-43
2023/07/18 11:04:53;;;;;;;2.95;1.17;;;22.30;99.90;;;;;;5014669;28;20037;-45
2023/07/18 11:07:33;;;;;;;2.25;1.52;;;22.30;99.90;;;;;;5014469;28;20025;-42
2023/07/18 11:09:59;;;;;;;2.03;1.20;;;22.30;99.90;;;;;;5014188;28;20564;-41
2023/07/18 11:12:25;;;;;;;2.10;1.25;;;22.30;99.90;;;;;;5014484;28;20026;-44
2023/07/18 11:14:50;;;;;;;2.50;1.40;;;22.30;99.90;;;;;;5014413;28;20073;-44
2023/07/18 11:17:19;;;;;;;3.20;1.50;;;22.30;99.90;;;;;;5014874;28;20026;-44
2023/07/18 11:19:46;;;;;;;2.33;1.20;;;22.30;99.90;;;;;;5014117;28;20404;-45
2023/07/18 11:22:13;;;;;;;4.75;1.48;;;22.30;99.90;;;;;;5012841;28;20068;-45
2023/07/18 11:24:40;;;;;;;1.77;1.25;;;22.30;99.90;;;;;;5014396;28;20055;-45
2023/07/18 11:27:22;;;;;;;2.42;1.60;;;22.30;99.90;;;;;;5014261;28;20022;-45
2023/07/18 11:30:00;;;;;;;2.03;1.30;;;22.30;99.90;;;;;;5014018;28;20072;-46
2023/07/18 11:32:39;;;;;;;1.83;1.30;;;22.30;99.90;;;;;;5014074;28;20025;-47
2023/07/18 11:35:10;;;;;;;2.65;1.50;;;22.30;99.90;;;;;;5019304;28;20028;-41
2023/07/18 11:37:38;;;;;;;5.00;2.33;;;22.30;99.90;;;;;;5031815;28;20519;-43
2023/07/18 11:40:05;;;;;;;13.80;2.60;;;22.30;99.90;;;;;;5033483;28;20068;-47
2023/07/18 11:42:51;;;;;;;6.47;2.40;;;22.30;99.90;;;;;;5033959;28;20115;-42
2023/07/18 11:45:22;;;;;;;4.53;2.28;;;22.30;99.90;;;;;;5015690;28;20025;-43
2023/07/18 11:47:52;;;;;;;5.10;2.33;;;22.30;99.90;;;;;;5033432;28;20030;-42
2023/07/18 11:50:18;;;;;;;7.57;2.80;;;22.30;99.90;;;;;;5033260;28;20041;-43
2023/07/18 11:52:49;;;;;;;5.72;2.50;;;22.30;99.90;;;;;;5015542;28;20025;-43
2023/07/18 11:55:16;;;;;;;7.63;2.55;;;22.30;99.90;;;;;;5023503;28;20412;-42
2023/07/18 11:57:43;;;;;;;5.32;2.80;;;22.30;99.90;;;;;;5033188;28;20026;-42
2023/07/18 12:00:12;;;;;;;5.85;2.50;;;22.30;99.90;;;;;;5015266;28;20104;-46
2023/07/18 12:02:38;;;;;;;4.15;2.15;;;22.30;99.90;;;;;;5033158;28;20026;-48
2023/07/18 12:05:05;;;;;;;5.50;2.45;;;22.30;99.90;;;;;;5033260;28;20033;-42
2023/07/18 12:07:35;;;;;;;3.47;2.10;;;22.30;99.90;;;;;;5033369;28;20025;-43
2023/07/18 12:10:06;;;;;;;5.05;2.38;;;22.30;99.90;;;;;;5032871;28;20025;-45
2023/07/18 12:12:36;;;;;;;4.35;2.05;;;22.30;99.90;;;;;;5033012;28;20133;-41
2023/07/18 12:15:01;;;;;;;6.10;2.42;;;22.30;99.90;;;;;;5033035;28;20025;-42
2023/07/18 12:17:27;;;;;;;3.42;2.33;;;22.30;99.90;;;;;;5032873;28;20359;-44
2023/07/18 12:19:53;;;;;;;5.50;2.28;;;22.30;99.90;;;;;;5032732;28;20101;-43
2023/07/18 12:22:19;;;;;;;4.53;2.17;;;22.30;99.90;;;;;;5032821;28;20152;-45
2023/07/18 12:24:44;;;;;;;3.72;2.10;;;22.30;99.90;;;;;;5032780;28;20053;-44
2023/07/18 12:27:12;;;;;;;3.40;1.92;;;22.30;99.90;;;;;;5032736;28;20393;-42
2023/07/18 12:29:38;;;;;;;4.68;2.00;;;22.30;99.90;;;;;;5032621;28;20476;-42
2023/07/18 12:32:04;;;;;;;5.45;2.30;;;22.30;99.90;;;;;;5032668;28;20037;-46
2023/07/18 12:34:30;;;;;;;3.08;2.08;;;22.30;99.90;;;;;;5032626;28;20025;-44
2023/07/18 12:36:56;;;;;;;3.33;1.92;;;22.30;99.90;;;;;;5032618;28;20028;-44
2023/07/18 12:39:22;;;;;;;4.85;2.17;;;22.30;99.90;;;;;;5014401;28;20385;-43
2023/07/18 12:41:48;;;;;;;4.43;2.15;;;22.30;99.90;;;;;;5032555;28;20026;-45
2023/07/18 12:44:19;;;;;;;2.95;2.03;;;22.30;99.90;;;;;;5032492;28;20504;-46
2023/07/18 12:46:46;;;;;;;4.13;2.10;;;22.30;99.90;;;;;;5032437;28;20048;-46
2023/07/18 12:49:13;;;;;;;5.18;2.10;;;22.30;99.90;;;;;;5032025;28;20037;-43
2023/07/18 12:51:41;;;;;;;5.03;2.40;;;22.30;99.90;;;;;;5032314;28;20369;-42
2023/07/18 12:54:07;;;;;;;3.15;2.30;;;22.30;99.90;;;;;;5032162;28;20484;-44